Time,TemperatureF,DewpointF,PressureIn,WindDirection,WindDirectionDegrees,WindSpeedMPH,WindSpeedGustMPH,Humidity,HourlyPrecipIn,Conditions,Clouds,dailyrainin,SoftwareType,DateUTC
2013-04-30 00:01:00,75.0,45.0,29.63,WSW,248,0.0,0.0,35,0.00,,,0.00,,2013-04-30 07:01:00,
2013-04-30 00:21:00,74.0,45.0,29.63,WSW,248,0.0,0.0,36,0.00,,,0.00,,2013-04-30 07:21:00,
2013-04-30 00:31:00,74.0,45.0,29.63,WSW,248,0.0,0.0,36,0.00,,,0.00,,2013-04-30 07:31:00,
2013-04-30 00:52:00,73.0,46.0,29.63,WSW,248,0.0,0.0,38,0.00,,,0.00,,2013-04-30 07:52:00,
2013-04-30 01:02:00,73.0,44.0,29.63,WSW,248,1.0,2.0,35,0.00,,,0.00,,2013-04-30 08:02:00,
2013-04-30 01:21:00,73.0,43.0,29.63,WSW,248,0.0,1.0,34,0.00,,,0.00,,2013-04-30 08:21:00,
2013-04-30 01:31:00,73.0,44.0,29.63,WSW,248,0.0,0.0,36,0.00,,,0.00,,2013-04-30 08:31:00,
2013-04-30 01:52:00,72.0,43.0,29.62,WSW,248,0.0,0.0,35,0.00,,,0.00,,2013-04-30 08:52:00,
2013-04-30 02:01:00,72.0,43.0,29.62,WSW,248,0.0,1.0,35,0.00,,,0.00,,2013-04-30 09:01:00,
2013-04-30 02:21:00,72.0,41.0,29.62,WSW,248,0.0,1.0,33,0.00,,,0.00,,2013-04-30 09:21:00,
2013-04-30 02:32:00,72.0,41.0,29.62,WSW,248,0.0,0.0,33,0.00,,,0.00,,2013-04-30 09:32:00,
2013-04-30 03:02:00,71.0,40.0,29.62,SW,225,0.0,0.0,33,0.00,,,0.00,,2013-04-30 10:02:00,
2013-04-30 03:32:00,71.0,36.0,29.63,SW,225,2.0,3.0,28,0.00,,,0.00,,2013-04-30 10:32:00,
2013-04-30 03:41:00,71.0,36.0,29.63,SW,225,2.0,3.0,28,0.00,,,0.00,,2013-04-30 10:41:00,
2013-04-30 03:52:00,71.0,35.0,29.63,SW,225,1.0,3.0,27,0.00,,,0.00,,2013-04-30 10:52:00,
2013-04-30 04:01:00,71.0,35.0,29.64,SW,225,1.0,3.0,27,0.00,,,0.00,,2013-04-30 11:01:00,
2013-04-30 04:11:00,71.0,35.0,29.64,SW,225,1.0,3.0,27,0.00,,,0.00,,2013-04-30 11:11:00,
2013-04-30 04:21:00,71.0,35.0,29.64,SW,225,1.0,2.0,27,0.00,,,0.00,,2013-04-30 11:21:00,
2013-04-30 04:31:00,71.0,38.0,29.64,SW,225,0.0,0.0,30,0.00,,,0.00,,2013-04-30 11:31:00,
2013-04-30 04:42:00,71.0,38.0,29.64,SW,225,0.0,0.0,30,0.00,,,0.00,,2013-04-30 11:42:00,
2013-04-30 04:51:00,70.0,38.0,29.64,SW,225,0.0,0.0,31,0.00,,,0.00,,2013-04-30 11:51:00,
2013-04-30 05:01:00,69.0,39.0,29.64,SW,225,0.0,0.0,33,0.00,,,0.00,,2013-04-30 12:01:00,
2013-04-30 05:31:00,67.0,41.0,29.64,SW,225,1.0,2.0,38,0.00,,,0.00,,2013-04-30 12:31:00,
2013-04-30 06:01:00,66.0,42.0,29.64,SW,225,0.0,0.0,42,0.00,,,0.00,,2013-04-30 13:01:00,
2013-04-30 06:31:00,66.0,42.0,29.65,SW,225,1.0,2.0,42,0.00,,,0.00,,2013-04-30 13:31:00,
2013-04-30 07:01:00,68.0,44.0,29.65,WSW,248,0.0,1.0,42,0.00,,,0.00,,2013-04-30 14:01:00,
2013-04-30 07:11:00,69.0,42.0,29.66,SSW,203,0.0,0.0,37,0.00,,,0.00,,2013-04-30 14:11:00,
2013-04-30 07:31:00,71.0,42.0,29.66,SSW,203,1.0,2.0,35,0.00,,,0.00,,2013-04-30 14:31:00,
2013-04-30 07:52:00,72.0,40.0,29.66,SSW,203,1.0,2.0,31,0.00,,,0.00,,2013-04-30 14:52:00,
2013-04-30 08:01:00,74.0,38.0,29.67,SSW,203,2.0,3.0,27,0.00,,,0.00,,2013-04-30 15:01:00,
2013-04-30 08:11:00,74.0,38.0,29.67,SSW,203,2.0,3.0,27,0.00,,,0.00,,2013-04-30 15:11:00,
2013-04-30 08:21:00,75.0,42.0,29.67,South,180,1.0,3.0,31,0.00,,,0.00,,2013-04-30 15:21:00,
2013-04-30 08:32:00,76.0,43.0,29.67,South,180,0.0,0.0,31,0.00,,,0.00,,2013-04-30 15:32:00,
2013-04-30 08:42:00,76.0,43.0,29.67,South,180,0.0,0.0,31,0.00,,,0.00,,2013-04-30 15:42:00,
2013-04-30 08:52:00,78.0,41.0,29.67,South,180,1.0,2.0,27,0.00,,,0.00,,2013-04-30 15:52:00,
2013-04-30 09:02:00,80.0,43.0,29.67,South,180,1.0,2.0,27,0.00,,,0.00,,2013-04-30 16:02:00,
2013-04-30 09:12:00,80.0,43.0,29.67,South,180,1.0,2.0,27,0.00,,,0.00,,2013-04-30 16:12:00,
2013-04-30 09:22:00,82.0,38.0,29.67,South,180,2.0,3.0,21,0.00,,,0.00,,2013-04-30 16:22:00,
2013-04-30 09:32:00,83.0,38.0,29.67,South,180,2.0,3.0,20,0.00,,,0.00,,2013-04-30 16:32:00,
2013-04-30 09:42:00,83.0,38.0,29.67,South,180,2.0,3.0,20,0.00,,,0.00,,2013-04-30 16:42:00,
2013-04-30 09:52:00,84.0,39.0,29.68,SSW,203,2.0,3.0,20,0.00,,,0.00,,2013-04-30 16:52:00,
2013-04-30 10:02:00,85.0,42.0,29.69,SSW,203,2.0,3.0,22,0.00,,,0.00,,2013-04-30 17:02:00,
2013-04-30 10:11:00,86.0,41.0,29.68,South,180,2.0,3.0,21,0.00,,,0.00,,2013-04-30 17:11:00,
2013-04-30 10:22:00,86.0,41.0,29.68,South,180,2.0,3.0,21,0.00,,,0.00,,2013-04-30 17:22:00,
2013-04-30 10:32:00,87.0,38.0,29.69,South,180,3.0,5.0,18,0.00,,,0.00,,2013-04-30 17:32:00,
2013-04-30 10:41:00,88.0,38.0,29.69,SW,225,2.0,3.0,17,0.00,,,0.00,,2013-04-30 17:41:00,
2013-04-30 10:52:00,88.0,38.0,29.69,SW,225,2.0,3.0,17,0.00,,,0.00,,2013-04-30 17:52:00,
2013-04-30 11:01:00,90.0,39.0,29.69,South,180,5.0,8.0,17,0.00,,,0.00,,2013-04-30 18:01:00,
2013-04-30 11:11:00,90.0,41.0,29.69,South,180,6.0,9.0,18,0.00,,,0.00,,2013-04-30 18:11:00,
2013-04-30 11:32:00,92.0,41.0,29.68,South,180,3.0,6.0,17,0.00,,,0.00,,2013-04-30 18:32:00,
2013-04-30 11:41:00,93.0,42.0,29.68,SE,135,5.0,7.0,17,0.00,,,0.00,,2013-04-30 18:41:00,
2013-04-30 12:01:00,93.0,42.0,29.67,South,180,3.0,8.0,17,0.00,,,0.00,,2013-04-30 19:01:00,
2013-04-30 12:11:00,94.0,41.0,29.66,South,180,7.0,12.0,16,0.00,,,0.00,,2013-04-30 19:11:00,
2013-04-30 12:31:00,95.0,42.0,29.65,South,180,3.0,6.0,16,0.00,,,0.00,,2013-04-30 19:31:00,
2013-04-30 12:41:00,96.0,44.0,29.65,South,180,7.0,10.0,17,0.00,,,0.00,,2013-04-30 19:41:00,
2013-04-30 13:01:00,96.0,43.0,29.65,South,180,5.0,9.0,16,0.00,,,0.00,,2013-04-30 20:01:00,
2013-04-30 13:21:00,96.0,43.0,29.65,SSE,158,7.0,10.0,16,0.00,,,0.00,,2013-04-30 20:21:00,
2013-04-30 13:32:00,97.0,45.0,29.65,South,180,6.0,12.0,17,0.00,,,0.00,,2013-04-30 20:32:00,
2013-04-30 14:01:00,98.0,42.0,29.64,South,180,6.0,9.0,15,0.00,,,0.00,,2013-04-30 21:01:00,
2013-04-30 14:11:00,98.0,41.0,29.64,SSW,203,6.0,10.0,14,0.00,,,0.00,,2013-04-30 21:11:00,
2013-04-30 14:32:00,99.0,43.0,29.62,SSE,158,7.0,12.0,15,0.00,,,0.00,,2013-04-30 21:32:00,
2013-04-30 15:02:00,99.0,40.0,29.62,South,180,8.0,12.0,13,0.00,,,0.00,,2013-04-30 22:02:00,
2013-04-30 15:12:00,99.0,40.0,29.61,South,180,9.0,14.0,13,0.00,,,0.00,,2013-04-30 22:12:00,
2013-04-30 15:32:00,99.0,40.0,29.60,SSE,158,7.0,12.0,13,0.00,,,0.00,,2013-04-30 22:32:00,
2013-04-30 15:53:00,99.0,40.0,29.59,SSE,158,7.0,12.0,13,0.00,,,0.00,,2013-04-30 22:53:00,
2013-04-30 16:02:00,99.0,40.0,29.59,SSE,158,6.0,9.0,13,0.00,,,0.00,,2013-04-30 23:02:00,
2013-04-30 16:11:00,99.0,40.0,29.59,South,180,10.0,15.0,13,0.00,,,0.00,,2013-04-30 23:11:00,
2013-04-30 16:32:00,98.0,39.0,29.59,SSE,158,5.0,7.0,13,0.00,,,0.00,,2013-04-30 23:32:00,
2013-04-30 16:52:00,97.0,38.0,29.59,SSE,158,8.0,13.0,13,0.00,,,0.00,,2013-04-30 23:52:00,
2013-04-30 17:01:00,97.0,36.0,29.59,South,180,8.0,12.0,12,0.00,,,0.00,,2013-05-01 00:01:00,
2013-04-30 17:21:00,97.0,34.0,29.59,South,180,14.0,20.0,11,0.00,,,0.00,,2013-05-01 00:21:00,
2013-04-30 17:31:00,95.0,34.0,29.59,South,180,10.0,15.0,12,0.00,,,0.00,,2013-05-01 00:31:00,
2013-04-30 17:51:00,95.0,36.0,29.59,South,180,10.0,17.0,13,0.00,,,0.00,,2013-05-01 00:51:00,
2013-04-30 18:01:00,94.0,36.0,29.59,South,180,7.0,9.0,13,0.00,,,0.00,,2013-05-01 01:01:00,
2013-04-30 18:21:00,93.0,35.0,29.59,SSE,158,6.0,10.0,13,0.00,,,0.00,,2013-05-01 01:21:00,
2013-04-30 18:31:00,92.0,34.0,29.59,South,180,6.0,9.0,13,0.00,,,0.00,,2013-05-01 01:31:00,
2013-04-30 18:41:00,92.0,34.0,29.59,South,180,6.0,9.0,13,0.00,,,0.00,,2013-05-01 01:41:00,
2013-04-30 18:52:00,92.0,34.0,29.59,SSE,158,5.0,8.0,13,0.00,,,0.00,,2013-05-01 01:52:00,
2013-04-30 19:01:00,91.0,35.0,29.60,South,180,6.0,12.0,14,0.00,,,0.00,,2013-05-01 02:01:00,
2013-04-30 19:11:00,90.0,36.0,29.60,South,180,3.0,6.0,15,0.00,,,0.00,,2013-05-01 02:11:00,
2013-04-30 19:32:00,89.0,34.0,29.60,South,180,3.0,7.0,14,0.00,,,0.00,,2013-05-01 02:32:00,
2013-04-30 19:42:00,89.0,34.0,29.60,South,180,3.0,7.0,14,0.00,,,0.00,,2013-05-01 02:42:00,
2013-04-30 19:52:00,88.0,33.0,29.61,South,180,6.0,12.0,14,0.00,,,0.00,,2013-05-01 02:52:00,
2013-04-30 20:01:00,87.0,34.0,29.61,South,180,5.0,7.0,15,0.00,,,0.00,,2013-05-01 03:01:00,
2013-04-30 20:11:00,87.0,34.0,29.61,South,180,5.0,7.0,15,0.00,,,0.00,,2013-05-01 03:11:00,
2013-04-30 20:21:00,86.0,33.0,29.62,South,180,2.0,5.0,15,0.00,,,0.00,,2013-05-01 03:21:00,
2013-04-30 20:32:00,86.0,33.0,29.62,SE,135,1.0,3.0,15,0.00,,,0.00,,2013-05-01 03:32:00,
2013-04-30 20:42:00,86.0,33.0,29.62,SE,135,1.0,3.0,15,0.00,,,0.00,,2013-05-01 03:42:00,
2013-04-30 20:53:00,85.0,35.0,29.63,SSW,203,3.0,5.0,17,0.00,,,0.00,,2013-05-01 03:53:00,
2013-04-30 21:02:00,84.0,40.0,29.64,SE,135,2.0,3.0,21,0.00,,,0.00,,2013-05-01 04:02:00,
2013-04-30 21:12:00,83.0,40.0,29.65,South,180,2.0,5.0,22,0.00,,,0.00,,2013-05-01 04:12:00,
2013-04-30 21:22:00,83.0,40.0,29.65,South,180,2.0,5.0,22,0.00,,,0.00,,2013-05-01 04:22:00,
2013-04-30 21:32:00,83.0,42.0,29.65,South,180,3.0,6.0,24,0.00,,,0.00,,2013-05-01 04:32:00,
2013-04-30 21:52:00,82.0,43.0,29.65,SE,135,6.0,8.0,25,0.00,,,0.00,,2013-05-01 04:52:00,
2013-04-30 22:02:00,82.0,44.0,29.66,ESE,113,3.0,6.0,26,0.00,,,0.00,,2013-05-01 05:02:00,
2013-04-30 22:21:00,81.0,44.0,29.66,South,180,3.0,6.0,27,0.00,,,0.00,,2013-05-01 05:21:00,
2013-04-30 22:32:00,80.0,43.0,29.66,South,180,1.0,3.0,27,0.00,,,0.00,,2013-05-01 05:32:00,
2013-04-30 22:41:00,79.0,42.0,29.66,SSW,203,1.0,3.0,27,0.00,,,0.00,,2013-05-01 05:41:00,
2013-04-30 22:52:00,79.0,42.0,29.66,SSW,203,1.0,3.0,27,0.00,,,0.00,,2013-05-01 05:52:00,
2013-04-30 23:01:00,78.0,44.0,29.67,SW,225,1.0,3.0,30,0.00,,,0.00,,2013-05-01 06:01:00,
2013-04-30 23:11:00,78.0,44.0,29.67,SW,225,1.0,3.0,30,0.00,,,0.00,,2013-05-01 06:11:00,
2013-04-30 23:21:00,77.0,45.0,29.67,SW,225,2.0,3.0,32,0.00,,,0.00,,2013-05-01 06:21:00,
2013-04-30 23:32:00,76.0,45.0,29.68,SSW,203,0.0,1.0,33,0.00,,,0.00,,2013-05-01 06:32:00,
2013-04-30 23:41:00,76.0,45.0,29.68,SSW,203,0.0,1.0,33,0.00,,,0.00,,2013-05-01 06:41:00,
2013-04-30 23:52:00,76.0,46.0,29.68,SW,225,0.0,0.0,34,0.00,,,0.00,,2013-05-01 06:52:00,